Time;durP1;ratioP1;P1;durP2;ratioP2;P2;SDS_P1;SDS_P2;PMS_P1;PMS_P2;Temp;Humidity;BMP_temperature;BMP_pressure;BME280_temperature;BME280_humidity;BME280_pressure;Samples;Min_cycle;Max_cycle;Signal;HPM_P1;HPM_P2
2022/08/30 00:01:10;;;;;;;1.20;1.13;;;25.30;60.00;;;;;;5067839;28;20114;-63
2022/08/30 00:03:46;;;;;;;1.60;1.50;;;25.30;60.00;;;;;;5067505;28;20046;-63
2022/08/30 00:06:16;;;;;;;1.35;1.25;;;25.30;60.00;;;;;;5067566;28;20587;-63
2022/08/30 00:08:44;;;;;;;1.40;1.30;;;25.30;60.00;;;;;;5066159;28;20394;-63
2022/08/30 00:11:15;;;;;;;1.20;1.15;;;25.30;60.00;;;;;;5065373;28;20170;-63
2022/08/30 00:13:44;;;;;;;1.63;1.30;;;25.30;60.00;;;;;;5066456;28;20048;-63
2022/08/30 00:16:12;;;;;;;1.55;1.40;;;25.30;60.00;;;;;;5068102;28;20489;-63
2022/08/30 00:18:46;;;;;;;1.20;1.20;;;25.30;59.90;;;;;;5067730;28;20048;-63
2022/08/30 00:21:14;;;;;;;1.50;1.40;;;25.30;60.00;;;;;;5067963;28;20082;-63
2022/08/30 00:23:42;;;;;;;2.67;1.15;;;25.30;59.90;;;;;;5068042;28;20099;-63
2022/08/30 00:26:09;;;;;;;1.20;1.10;;;25.30;59.90;;;;;;5067341;28;20056;-63
2022/08/30 00:28:36;;;;;;;1.17;1.10;;;25.30;59.90;;;;;;5067653;28;20048;-63
2022/08/30 00:31:04;;;;;;;2.47;1.20;;;25.30;59.90;;;;;;5068135;28;20455;-63
2022/08/30 00:33:32;;;;;;;1.55;1.42;;;25.30;59.90;;;;;;5067802;28;20040;-63
2022/08/30 00:35:59;;;;;;;1.50;1.40;;;25.30;59.90;;;;;;5067412;28;20566;-65
2022/08/30 00:38:26;;;;;;;1.38;1.27;;;25.30;59.90;;;;;;5067578;28;20635;-63
2022/08/30 00:40:54;;;;;;;1.50;1.40;;;25.30;59.90;;;;;;5062252;28;20086;-63
2022/08/30 00:43:29;;;;;;;1.58;1.02;;;25.30;59.90;;;;;;5067467;28;20102;-63
2022/08/30 00:46:03;;;;;;;1.30;1.30;;;25.20;59.90;;;;;;5066152;28;20130;-63
2022/08/30 00:48:32;;;;;;;1.35;1.25;;;25.20;59.90;;;;;;5067219;28;20476;-63
2022/08/30 00:51:04;;;;;;;1.40;1.30;;;25.20;60.50;;;;;;5067867;28;20101;-63
2022/08/30 00:53:36;;;;;;;1.23;1.17;;;25.30;60.00;;;;;;5067558;28;20052;-63
2022/08/30 00:56:04;;;;;;;1.38;1.27;;;25.20;59.90;;;;;;5067067;28;20087;-63
2022/08/30 00:58:36;;;;;;;1.73;1.63;;;25.20;59.90;;;;;;5067314;28;20475;-62
2022/08/30 01:01:05;;;;;;;1.13;1.13;;;25.20;60.00;;;;;;5067421;28;20240;-63
2022/08/30 01:03:32;;;;;;;1.60;1.50;;;25.20;60.00;;;;;;5066711;28;20445;-63
2022/08/30 01:06:01;;;;;;;1.48;1.35;;;25.20;59.90;;;;;;5067284;28;20094;-63
2022/08/30 01:08:28;;;;;;;1.20;1.10;;;25.20;59.90;;;;;;5065959;28;20370;-63
2022/08/30 01:10:56;;;;;;;1.08;1.00;;;25.20;60.00;;;;;;5070822;28;20536;-63
2022/08/30 01:13:25;;;;;;;1.20;1.10;;;25.20;60.00;;;;;;5065062;28;20542;-63
2022/08/30 01:15:53;;;;;;;1.25;1.15;;;25.20;59.90;;;;;;5069467;28;20115;-63
2022/08/30 01:18:22;;;;;;;1.65;1.45;;;25.20;60.00;;;;;;5070837;28;20048;-63
2022/08/30 01:21:18;;;;;;;1.00;1.00;;;25.20;60.00;;;;;;5070594;28;20087;-63
2022/08/30 01:23:49;;;;;;;1.15;1.08;;;25.20;60.00;;;;;;5069551;28;20501;-63
2022/08/30 01:26:17;;;;;;;4.05;1.70;;;25.20;60.00;;;;;;5069320;28;20237;-63
2022/08/30 01:28:52;;;;;;;3.70;1.13;;;25.20;60.00;;;;;;5070614;28;20047;-63
2022/08/30 01:31:19;;;;;;;1.30;1.30;;;25.20;60.00;;;;;;5070839;28;20582;-63
2022/08/30 01:33:46;;;;;;;2.90;1.20;;;25.20;60.00;;;;;;5070606;28;20375;-63
2022/08/30 01:36:14;;;;;;;1.33;1.17;;;25.20;60.00;;;;;;5069463;28;20139;-63
2022/08/30 01:38:51;;;;;;;1.02;1.02;;;25.20;59.90;;;;;;5069889;28;20338;-63
2022/08/30 01:41:30;;;;;;;1.38;1.20;;;25.20;59.90;;;;;;5069502;28;20524;-63
2022/08/30 01:44:00;;;;;;;1.35;1.30;;;25.20;59.90;;;;;;5065508;28;20603;-63
2022/08/30 01:46:34;;;;;;;1.42;1.30;;;25.20;59.90;;;;;;5069967;28;20052;-63
2022/08/30 01:49:06;;;;;;;1.60;1.50;;;25.20;59.80;;;;;;5070565;28;20133;-63
2022/08/30 01:51:33;;;;;;;1.15;1.10;;;25.20;59.80;;;;;;5070310;28;20475;-63
2022/08/30 01:54:01;;;;;;;1.23;1.08;;;25.20;59.80;;;;;;5070428;28;20513;-63
2022/08/30 01:56:28;;;;;;;1.33;1.33;;;25.20;59.90;;;;;;5070051;28;20048;-63
2022/08/30 01:58:56;;;;;;;0.95;0.95;;;25.20;59.80;;;;;;5070220;28;20097;-63
2022/08/30 02:01:30;;;;;;;1.45;1.35;;;25.20;59.80;;;;;;5069676;28;20053;-63
2022/08/30 02:03:58;;;;;;;1.30;1.20;;;25.10;59.80;;;;;;5069789;28;20098;-63
2022/08/30 02:06:26;;;;;;;2.90;1.88;;;25.20;59.80;;;;;;5070037;28;20464;-63
2022/08/30 02:08:53;;;;;;;1.30;1.23;;;25.20;59.90;;;;;;5069391;28;20488;-63
2022/08/30 02:11:20;;;;;;;1.40;1.30;;;25.10;59.80;;;;;;5068735;28;20048;-63
2022/08/30 02:13:48;;;;;;;1.40;1.30;;;25.10;59.80;;;;;;5069873;28;20067;-63
2022/08/30 02:16:21;;;;;;;1.50;1.40;;;25.10;59.80;;;;;;5064866;28;20454;-64
2022/08/30 02:18:50;;;;;;;2.65;1.25;;;25.10;59.90;;;;;;5069856;28;20611;-63
2022/08/30 02:21:18;;;;;;;1.25;1.20;;;25.10;59.90;;;;;;5069535;28;20353;-63
2022/08/30 02:23:46;;;;;;;1.10;1.00;;;25.10;59.80;;;;;;5070104;28;20075;-63
2022/08/30 02:26:14;;;;;;;1.10;1.08;;;25.10;59.80;;;;;;5069234;28;20554;-63
2022/08/30 02:28:42;;;;;;;1.33;1.27;;;25.20;59.90;;;;;;5069468;28;20369;-63
2022/08/30 02:31:17;;;;;;;1.42;1.10;;;25.10;59.90;;;;;;5068132;28;20052;-63
2022/08/30 02:33:49;;;;;;;0.95;0.95;;;25.10;59.90;;;;;;5069063;28;20094;-63
2022/08/30 02:36:17;;;;;;;1.20;1.20;;;25.10;59.90;;;;;;5069843;28;20048;-63
2022/08/30 02:38:45;;;;;;;1.15;1.15;;;25.10;59.90;;;;;;5069069;28;20113;-63
2022/08/30 02:41:13;;;;;;;1.08;1.08;;;25.10;59.90;;;;;;5068437;28;20045;-63
2022/08/30 02:43:40;;;;;;;1.25;1.15;;;25.10;59.90;;;;;;5069029;28;20055;-63
2022/08/30 02:46:07;;;;;;;1.23;1.13;;;25.10;59.90;;;;;;5069079;28;20114;-63
2022/08/30 02:48:35;;;;;;;1.38;1.35;;;25.10;59.90;;;;;;5064896;28;20544;-63
2022/08/30 02:51:08;;;;;;;1.20;1.10;;;25.10;60.00;;;;;;5068448;28;20267;-63
2022/08/30 02:53:38;;;;;;;1.10;1.10;;;25.10;60.00;;;;;;5069037;28;20040;-63
2022/08/30 02:56:06;;;;;;;1.65;1.55;;;25.10;60.00;;;;;;5069188;28;20669;-62
2022/08/30 02:58:33;;;;;;;2.25;1.13;;;25.10;60.00;;;;;;5068627;28;20524;-62
2022/08/30 03:01:00;;;;;;;1.17;1.10;;;25.10;60.00;;;;;;5069259;28;20036;-62
2022/08/30 03:03:28;;;;;;;1.15;1.10;;;25.10;60.00;;;;;;5068460;28;20060;-63
2022/08/30 03:05:55;;;;;;;2.38;1.30;;;25.10;60.00;;;;;;5069073;28;20143;-63
2022/08/30 03:08:22;;;;;;;2.45;1.00;;;25.10;60.10;;;;;;5067262;28;20488;-62
2022/08/30 03:10:50;;;;;;;1.05;0.95;;;25.10;60.10;;;;;;5068927;28;20101;-62
2022/08/30 03:13:17;;;;;;;1.35;1.05;;;25.10;60.10;;;;;;5069058;28;20048;-63
2022/08/30 03:15:44;;;;;;;4.53;1.83;;;25.10;60.20;;;;;;5067044;28;20048;-62
2022/08/30 03:18:11;;;;;;;2.50;1.20;;;25.10;60.20;;;;;;5067304;28;20466;-62
2022/08/30 03:20:40;;;;;;;1.25;1.15;;;25.10;60.30;;;;;;5065682;28;20143;-62
2022/08/30 03:23:10;;;;;;;1.13;1.02;;;25.10;60.40;;;;;;5067018;28;20036;-62
2022/08/30 03:25:47;;;;;;;1.65;1.30;;;25.10;60.40;;;;;;5068938;28;20048;-62
2022/08/30 03:28:15;;;;;;;1.13;1.10;;;25.10;60.40;;;;;;5067156;28;20048;-62
2022/08/30 03:30:42;;;;;;;1.50;1.30;;;25.10;60.40;;;;;;5068904;28;20045;-62
2022/08/30 03:33:09;;;;;;;1.52;1.05;;;25.10;60.40;;;;;;5066323;28;20616;-62
2022/08/30 03:35:37;;;;;;;2.85;1.20;;;25.10;60.50;;;;;;5068884;28;20131;-62
2022/08/30 03:38:05;;;;;;;2.97;1.52;;;25.10;60.40;;;;;;5068381;28;20049;-62
2022/08/30 03:40:32;;;;;;;1.33;1.23;;;25.10;60.40;;;;;;5068149;28;20509;-62
2022/08/30 03:42:59;;;;;;;2.03;1.10;;;25.10;60.40;;;;;;5068784;28;20051;-62
2022/08/30 03:45:27;;;;;;;1.33;1.25;;;25.10;60.40;;;;;;5067879;28;20041;-62
2022/08/30 03:47:54;;;;;;;1.30;1.20;;;25.10;60.40;;;;;;5068006;28;20063;-62
2022/08/30 03:50:22;;;;;;;1.20;1.10;;;25.10;60.40;;;;;;5063934;28;20401;-62
2022/08/30 03:53:26;;;;;;;2.88;1.45;;;25.10;60.50;;;;;;5067447;28;20060;-62
2022/08/30 03:55:54;;;;;;;2.63;1.20;;;25.10;60.40;;;;;;5066921;28;20131;-63
2022/08/30 03:58:23;;;;;;;1.05;1.05;;;25.10;60.40;;;;;;5067624;28;20051;-62
2022/08/30 04:00:50;;;;;;;1.70;1.10;;;25.10;60.40;;;;;;5068691;28;20052;-63
2022/08/30 04:03:24;;;;;;;2.45;1.25;;;25.10;60.40;;;;;;5067516;28;20153;-62
2022/08/30 04:05:52;;;;;;;4.78;1.48;;;25.10;60.40;;;;;;5067998;28;20052;-63
2022/08/30 04:08:20;;;;;;;1.92;1.42;;;25.10;60.30;;;;;;5067878;28;20048;-63
2022/08/30 04:10:47;;;;;;;1.60;1.50;;;25.10;60.20;;;;;;5065605;28;20076;-63
2022/08/30 04:13:15;;;;;;;1.52;1.42;;;25.10;60.10;;;;;;5067626;28;20660;-62
2022/08/30 04:15:42;;;;;;;1.70;1.60;;;25.10;60.00;;;;;;5067875;28;20052;-62
2022/08/30 04:18:10;;;;;;;3.22;1.77;;;25.10;59.80;;;;;;5067664;28;20049;-63
2022/08/30 04:20:37;;;;;;;2.08;1.95;;;25.10;59.60;;;;;;5068019;28;20398;-62
2022/08/30 04:23:08;;;;;;;1.48;1.38;;;25.10;59.50;;;;;;5062656;28;20056;-62
2022/08/30 04:25:37;;;;;;;1.40;1.30;;;25.10;59.30;;;;;;5067991;28;20102;-62
2022/08/30 04:28:05;;;;;;;1.75;1.65;;;25.00;59.10;;;;;;5067144;28;20110;-63
2022/08/30 04:30:32;;;;;;;2.08;1.90;;;25.10;59.60;;;;;;5068045;28;20151;-62
2022/08/30 04:32:59;;;;;;;1.85;1.75;;;25.10;58.80;;;;;;5067234;28;20088;-62
2022/08/30 04:35:26;;;;;;;1.73;1.63;;;25.00;58.70;;;;;;5066045;28;20049;-62
2022/08/30 04:37:54;;;;;;;10.18;2.10;;;25.10;58.50;;;;;;5067143;28;20048;-62
2022/08/30 04:40:21;;;;;;;2.75;2.00;;;25.10;58.50;;;;;;5067374;28;20106;-62
2022/08/30 04:42:53;;;;;;;5.18;2.03;;;25.10;58.50;;;;;;5067040;28;20267;-63
2022/08/30 04:45:21;;;;;;;2.72;1.75;;;25.10;58.50;;;;;;5070031;28;20075;-62
2022/08/30 04:47:48;;;;;;;2.72;1.80;;;25.10;58.30;;;;;;5069247;28;20127;-63
2022/08/30 04:50:18;;;;;;;3.65;1.92;;;25.10;58.00;;;;;;5070953;28;20048;-63
2022/08/30 04:52:46;;;;;;;9.15;2.50;;;25.10;57.70;;;;;;5070111;28;20049;-62
2022/08/30 04:55:14;;;;;;;3.42;1.85;;;25.10;57.40;;;;;;5067814;28;20083;-62
2022/08/30 04:57:46;;;;;;;5.18;2.00;;;25.10;57.10;;;;;;5069930;28;20469;-62
2022/08/30 05:00:13;;;;;;;3.65;2.00;;;25.10;56.90;;;;;;5071212;28;20118;-63
2022/08/30 05:02:41;;;;;;;3.25;2.10;;;25.10;56.80;;;;;;5070928;28;20093;-62
2022/08/30 05:07:56;;;;;;;4.00;1.95;;;25.10;56.60;;;;;;5071254;28;20336;-62
2022/08/30 05:10:26;;;;;;;8.05;2.15;;;25.10;56.50;;;;;;5070811;28;20048;-63
2022/08/30 05:12:53;;;;;;;3.80;2.10;;;25.10;56.60;;;;;;5071443;28;20053;-62
2022/08/30 05:15:21;;;;;;;2.55;1.92;;;25.00;56.70;;;;;;5069886;28;20083;-62
2022/08/30 05:17:48;;;;;;;3.35;1.80;;;24.90;57.00;;;;;;5065429;28;20076;-62
2022/08/30 05:20:16;;;;;;;3.17;1.95;;;24.80;57.10;;;;;;5061007;28;20048;-68
2022/08/30 05:22:50;;;;;;;3.70;2.03;;;24.60;56.40;;;;;;5069964;28;20481;-63
2022/08/30 05:25:26;;;;;;;2.33;1.80;;;24.30;55.70;;;;;;5058095;28;20447;-62
2022/08/30 05:27:53;;;;;;;6.00;2.10;;;24.00;54.90;;;;;;5056260;28;20067;-63
2022/08/30 05:30:21;;;;;;;2.83;2.03;;;23.70;54.20;;;;;;5060308;28;20041;-63
2022/08/30 05:32:50;;;;;;;3.22;2.30;;;23.30;53.90;;;;;;5066620;28;20094;-64
2022/08/30 05:35:18;;;;;;;4.05;2.17;;;23.00;53.70;;;;;;5067848;28;20082;-64
2022/08/30 05:37:51;;;;;;;2.72;1.45;;;22.70;53.40;;;;;;5068999;28;20135;-63
2022/08/30 05:40:19;;;;;;;4.60;1.88;;;22.40;53.10;;;;;;5064566;28;20157;-63
2022/08/30 05:42:46;;;;;;;5.43;2.03;;;22.10;53.20;;;;;;5064894;28;20049;-63
2022/08/30 05:45:14;;;;;;;6.13;2.20;;;21.80;53.50;;;;;;5058272;28;20160;-64
2022/08/30 05:47:41;;;;;;;3.35;1.80;;;21.60;53.60;;;;;;5058077;28;20044;-63
2022/08/30 05:50:09;;;;;;;5.57;2.75;;;21.30;54.80;;;;;;5065344;28;20044;-63
2022/08/30 05:52:38;;;;;;;2.63;2.30;;;21.10;54.90;;;;;;5060221;28;20109;-62
2022/08/30 05:55:07;;;;;;;3.85;2.40;;;20.90;54.60;;;;;;5059394;28;20135;-63
2022/08/30 05:57:37;;;;;;;6.35;3.05;;;20.60;56.30;;;;;;5057656;28;20480;-61
2022/08/30 06:00:09;;;;;;;3.20;2.35;;;20.50;57.00;;;;;;5060075;28;20049;-65
2022/08/30 06:02:36;;;;;;;5.70;3.22;;;20.30;56.10;;;;;;5064719;28;20102;-65
2022/08/30 06:05:04;;;;;;;4.82;3.17;;;20.20;56.40;;;;;;5046682;28;20048;-65
2022/08/30 06:07:31;;;;;;;4.13;2.75;;;20.10;57.10;;;;;;5065946;28;20557;-66
2022/08/30 06:09:58;;;;;;;4.40;3.58;;;20.00;57.00;;;;;;5060955;28;20058;-65
2022/08/30 06:12:26;;;;;;;6.30;3.10;;;19.90;56.70;;;;;;5065113;28;20497;-63
2022/08/30 06:14:53;;;;;;;4.75;3.00;;;19.80;58.00;;;;;;5064617;28;20063;-64
2022/08/30 06:17:21;;;;;;;4.07;3.10;;;19.80;57.80;;;;;;5061521;28;20093;-65
2022/08/30 06:19:48;;;;;;;3.42;2.97;;;19.70;57.30;;;;;;5063272;28;20515;-65
2022/08/30 06:22:16;;;;;;;3.95;3.38;;;19.70;63.80;;;;;;5062003;28;20412;-65
2022/08/30 06:24:44;;;;;;;3.47;2.75;;;19.90;64.20;;;;;;5062509;28;20036;-64
2022/08/30 06:27:27;;;;;;;4.72;3.15;;;20.00;63.30;;;;;;5062104;28;20056;-62
2022/08/30 06:29:55;;;;;;;4.15;2.85;;;20.10;57.30;;;;;;5060837;28;20188;-63
2022/08/30 06:32:22;;;;;;;3.15;2.50;;;20.00;56.70;;;;;;5064006;28;20146;-62
2022/08/30 06:34:49;;;;;;;3.92;3.53;;;19.90;57.20;;;;;;5065348;28;20105;-60
2022/08/30 06:37:16;;;;;;;3.55;2.97;;;19.80;57.20;;;;;;5065534;28;20048;-64
2022/08/30 06:39:58;;;;;;;4.25;3.08;;;19.70;57.00;;;;;;5050994;28;20044;-62
2022/08/30 06:42:30;;;;;;;4.55;2.97;;;19.60;57.40;;;;;;5063126;28;20044;-61
2022/08/30 06:45:00;;;;;;;4.93;3.05;;;19.50;57.90;;;;;;5063885;28;20519;-65
2022/08/30 06:47:28;;;;;;;4.20;3.28;;;19.40;58.30;;;;;;5064951;28;20060;-63
2022/08/30 06:49:57;;;;;;;9.48;3.72;;;19.30;58.10;;;;;;5061460;28;20698;-62
2022/08/30 06:52:24;;;;;;;5.72;3.08;;;19.20;58.40;;;;;;5066785;28;20102;-63
2022/08/30 06:54:54;;;;;;;4.18;3.17;;;19.10;58.30;;;;;;5064823;28;20040;-63
2022/08/30 06:57:21;;;;;;;4.65;3.55;;;19.10;58.90;;;;;;5064944;28;20431;-64
2022/08/30 06:59:49;;;;;;;6.47;3.55;;;19.00;59.10;;;;;;5058860;28;20524;-61
2022/08/30 07:02:22;;;;;;;4.32;3.25;;;18.90;59.10;;;;;;5064885;28;20076;-65
2022/08/30 07:04:49;;;;;;;5.68;3.85;;;18.90;59.40;;;;;;5061568;28;20083;-62
2022/08/30 07:07:17;;;;;;;3.70;3.05;;;18.80;59.40;;;;;;5057817;28;20048;-61
2022/08/30 07:09:44;;;;;;;4.55;3.22;;;18.80;59.60;;;;;;5061619;28;20044;-62
2022/08/30 07:12:12;;;;;;;4.25;3.50;;;18.80;60.50;;;;;;5059308;28;20492;-63
2022/08/30 07:14:41;;;;;;;6.22;3.90;;;18.80;60.50;;;;;;5059666;28;20045;-62
2022/08/30 07:20:02;;;;;;;10.45;4.97;;;18.70;60.30;;;;;;5059733;28;20041;-61
2022/08/30 07:22:29;;;;;;;5.75;3.80;;;18.70;60.90;;;;;;5055514;28;20110;-60
2022/08/30 07:24:56;;;;;;;4.07;3.67;;;18.80;61.40;;;;;;5058096;28;20515;-66
2022/08/30 07:27:23;;;;;;;8.23;4.30;;;18.80;61.90;;;;;;5060322;28;20044;-64
2022/08/30 07:29:50;;;;;;;16.08;5.18;;;18.80;62.40;;;;;;5056850;28;20488;-64
2022/08/30 07:32:18;;;;;;;8.57;5.15;;;18.80;62.80;;;;;;5059557;28;20086;-65
2022/08/30 07:34:45;;;;;;;5.95;5.20;;;18.80;62.70;;;;;;5061210;28;20069;-62
2022/08/30 07:37:12;;;;;;;6.88;5.40;;;18.90;63.10;;;;;;5062414;28;20048;-66
2022/08/30 07:39:44;;;;;;;7.25;4.90;;;19.00;62.50;;;;;;5065440;28;20461;-65
2022/08/30 07:42:15;;;;;;;6.88;5.25;;;19.10;62.60;;;;;;5064062;28;20044;-61
2022/08/30 07:44:42;;;;;;;7.95;4.90;;;19.20;62.50;;;;;;5060974;28;20087;-64
2022/08/30 07:47:10;;;;;;;7.63;4.90;;;19.20;62.30;;;;;;5060674;28;20078;-64
2022/08/30 07:49:37;;;;;;;8.60;5.93;;;19.30;61.70;;;;;;5060144;28;20420;-61
2022/08/30 07:52:05;;;;;;;8.35;5.57;;;19.30;62.70;;;;;;5062842;28;20405;-62
2022/08/30 07:54:32;;;;;;;7.50;5.82;;;19.40;62.80;;;;;;5060016;28;20140;-62
2022/08/30 07:56:59;;;;;;;7.70;5.55;;;19.40;62.50;;;;;;5059904;28;20049;-62
2022/08/30 07:59:26;;;;;;;7.53;5.50;;;19.40;62.50;;;;;;5057496;28;20049;-64
2022/08/30 08:01:55;;;;;;;7.35;4.30;;;19.50;62.50;;;;;;5061657;28;20515;-62
2022/08/30 08:04:23;;;;;;;8.63;5.35;;;19.50;62.00;;;;;;5055427;28;20106;-64
2022/08/30 08:06:51;;;;;;;6.00;4.78;;;19.50;62.40;;;;;;5060501;28;20691;-66
2022/08/30 08:09:18;;;;;;;5.40;4.85;;;19.50;62.70;;;;;;5061292;28;20052;-62
2022/08/30 08:11:45;;;;;;;6.65;5.38;;;19.50;61.90;;;;;;5063713;28;20481;-63
2022/08/30 08:14:12;;;;;;;6.57;5.10;;;19.60;62.50;;;;;;5063194;28;20119;-60
2022/08/30 08:16:45;;;;;;;7.75;5.30;;;19.60;62.50;;;;;;5062244;28;20056;-62
2022/08/30 08:19:12;;;;;;;7.03;5.70;;;19.60;63.30;;;;;;5058394;28;20044;-62
2022/08/30 08:21:40;;;;;;;7.18;5.53;;;19.60;63.30;;;;;;5062951;28;20060;-64
2022/08/30 08:24:07;;;;;;;11.10;6.93;;;19.60;63.30;;;;;;5062196;28;20305;-61
2022/08/30 08:26:35;;;;;;;12.27;5.55;;;19.60;64.10;;;;;;5064798;28;20049;-62
2022/08/30 08:29:05;;;;;;;9.38;5.90;;;19.60;64.20;;;;;;5065751;28;20040;-61
2022/08/30 08:31:32;;;;;;;8.88;5.80;;;19.70;63.60;;;;;;5063075;28;20496;-61
2022/08/30 08:34:03;;;;;;;9.23;6.10;;;19.70;63.60;;;;;;5062689;28;20049;-61
2022/08/30 08:36:32;;;;;;;11.57;6.95;;;19.70;63.80;;;;;;5060047;28;20135;-61
2022/08/30 08:38:59;;;;;;;9.35;6.47;;;19.70;63.10;;;;;;5063975;28;20064;-61
2022/08/30 08:41:55;;;;;;;10.32;6.10;;;19.70;63.00;;;;;;5064183;28;20040;-62
2022/08/30 08:44:52;;;;;;;10.02;5.53;;;19.70;63.00;;;;;;5064220;28;20057;-60
2022/08/30 08:47:34;;;;;;;10.07;6.75;;;19.70;63.50;;;;;;5061487;28;20056;-60
2022/08/30 08:50:06;;;;;;;8.77;5.85;;;19.70;63.60;;;;;;5064676;28;20100;-61
2022/08/30 08:55:52;;;;;;;11.05;6.28;;;19.70;64.10;;;;;;5065047;28;20063;-60
2022/08/30 08:58:29;;;;;;;9.20;6.00;;;19.80;63.70;;;;;;5056535;28;20098;-60
2022/08/30 09:00:58;;;;;;;10.60;6.70;;;19.80;63.50;;;;;;5061314;28;20380;-59
2022/08/30 09:03:28;;;;;;;7.57;5.85;;;19.80;63.90;;;;;;5063670;28;20061;-60
2022/08/30 09:05:59;;;;;;;8.63;6.00;;;19.80;64.00;;;;;;5062091;28;20447;-62
2022/08/30 09:08:26;;;;;;;9.65;5.78;;;19.90;64.00;;;;;;5060869;28;20052;-65
2022/08/30 09:11:05;;;;;;;9.60;5.68;;;19.90;63.80;;;;;;5063462;28;20071;-62
2022/08/30 09:13:32;;;;;;;7.10;5.78;;;20.00;64.20;;;;;;5064176;28;20052;-64
2022/08/30 09:16:00;;;;;;;10.10;6.15;;;20.00;63.80;;;;;;5059083;28;20050;-64
2022/08/30 09:18:46;;;;;;;9.90;6.35;;;20.10;64.00;;;;;;5064193;28;20040;-60
2022/08/30 09:21:24;;;;;;;9.18;6.03;;;20.10;63.90;;;;;;5061338;28;20778;-61
2022/08/30 09:23:58;;;;;;;7.78;5.65;;;20.20;64.40;;;;;;5061729;28;20072;-62
2022/08/30 09:26:32;;;;;;;6.28;5.40;;;20.20;64.80;;;;;;5062748;28;20133;-62
2022/08/30 09:28:59;;;;;;;9.75;6.13;;;20.30;64.40;;;;;;5066271;28;20515;-61
2022/08/30 09:31:31;;;;;;;7.50;6.45;;;20.30;64.50;;;;;;5064321;28;20068;-62
2022/08/30 09:34:04;;;;;;;10.82;6.15;;;20.40;64.90;;;;;;5068544;28;20079;-62
2022/08/30 09:36:43;;;;;;;9.38;5.72;;;20.50;64.50;;;;;;5066576;28;20095;-61
2022/08/30 09:39:18;;;;;;;6.45;5.72;;;20.50;64.60;;;;;;5062946;28;20049;-63
2022/08/30 09:41:49;;;;;;;6.05;5.45;;;20.50;64.80;;;;;;5065344;28;20511;-63
2022/08/30 09:44:20;;;;;;;8.25;5.72;;;20.60;64.90;;;;;;5073562;28;20385;-63
2022/08/30 09:46:55;;;;;;;9.73;5.03;;;20.70;64.00;;;;;;5062591;28;20055;-61
2022/08/30 09:49:38;;;;;;;7.05;5.40;;;20.80;63.80;;;;;;5059881;28;20481;-62
2022/08/30 09:52:43;;;;;;;7.38;5.45;;;20.80;62.60;;;;;;5058253;28;20068;-65
2022/08/30 09:55:33;;;;;;;8.05;5.18;;;20.80;62.40;;;;;;5062942;28;20064;-63
2022/08/30 09:58:28;;;;;;;8.02;5.85;;;20.80;62.30;;;;;;5067788;28;20052;-65
2022/08/30 10:01:28;;;;;;;6.68;5.18;;;20.80;62.60;;;;;;5064618;28;20492;-63
2022/08/30 10:04:04;;;;;;;9.02;5.47;;;20.80;62.40;;;;;;5065978;28;20056;-63
2022/08/30 10:06:50;;;;;;;6.50;5.70;;;20.80;61.40;;;;;;5059914;28;20049;-62
2022/08/30 10:09:40;;;;;;;9.80;5.88;;;20.80;61.30;;;;;;5057840;28;20524;-67
2022/08/30 10:12:30;;;;;;;7.00;5.25;;;20.90;61.30;;;;;;5061224;28;20098;-65
2022/08/30 10:15:24;;;;;;;12.82;5.13;;;20.80;60.50;;;;;;5064644;28;20481;-66
2022/08/30 10:18:14;;;;;;;8.43;5.45;;;20.80;60.30;;;;;;5063322;28;20466;-65
2022/08/30 10:21:12;;;;;;;6.45;5.65;;;20.70;60.30;;;;;;5064605;28;20065;-65
2022/08/30 10:23:50;;;;;;;8.18;5.50;;;20.70;60.60;;;;;;5057195;28;20049;-65
2022/08/30 10:26:41;;;;;;;8.05;5.50;;;20.60;60.80;;;;;;5061108;28;20097;-65
2022/08/30 10:29:33;;;;;;;6.18;5.43;;;20.60;61.00;;;;;;5059595;28;20120;-65
2022/08/30 10:32:24;;;;;;;6.63;5.88;;;20.60;61.20;;;;;;5062157;28;20048;-65
2022/08/30 10:35:06;;;;;;;9.82;5.70;;;20.50;60.20;;;;;;5061222;28;20557;-64
2022/08/30 10:37:57;;;;;;;7.47;5.10;;;20.50;61.00;;;;;;5082777;28;20044;-64
2022/08/30 10:43:42;;;;;;;6.38;5.30;;;20.40;60.40;;;;;;5066703;28;20045;-64
2022/08/30 10:46:28;;;;;;;5.47;4.93;;;20.40;59.70;;;;;;5061861;28;20135;-64
2022/08/30 10:49:00;;;;;;;6.45;4.97;;;20.30;60.10;;;;;;5056228;28;20412;-64
2022/08/30 10:51:35;;;;;;;7.88;4.97;;;20.30;59.30;;;;;;5064387;28;20048;-63
2022/08/30 10:54:25;;;;;;;7.60;4.88;;;20.20;59.60;;;;;;5065182;28;20106;-63
2022/08/30 10:56:55;;;;;;;6.10;4.75;;;20.20;59.70;;;;;;5058891;28;20127;-63
2022/08/30 10:59:23;;;;;;;6.95;4.97;;;20.10;59.90;;;;;;5059771;28;20056;-65
2022/08/30 11:02:18;;;;;;;6.10;4.82;;;20.10;60.00;;;;;;5057371;28;20052;-63
2022/08/30 11:05:25;;;;;;;9.40;5.28;;;20.10;60.00;;;;;;5062043;28;20087;-63
2022/08/30 11:08:23;;;;;;;8.60;5.35;;;20.00;60.50;;;;;;5058159;28;20048;-61
2022/08/30 11:11:05;;;;;;;7.90;5.03;;;20.00;61.30;;;;;;5052485;28;20073;-63
2022/08/30 11:13:41;;;;;;;12.13;5.10;;;20.00;61.30;;;;;;5065113;28;20487;-62
2022/08/30 11:16:14;;;;;;;8.20;5.45;;;20.00;62.00;;;;;;5055715;28;20049;-61
2022/08/30 11:18:51;;;;;;;8.80;5.43;;;20.10;62.20;;;;;;5059934;28;20048;-63
2022/08/30 11:21:36;;;;;;;10.07;5.47;;;20.10;61.80;;;;;;5066345;28;20533;-64
2022/08/30 11:24:11;;;;;;;7.55;5.50;;;20.20;62.10;;;;;;5065549;28;20118;-61
2022/08/30 11:26:56;;;;;;;6.30;5.22;;;20.20;62.60;;;;;;5062187;28;20057;-64
2022/08/30 11:29:31;;;;;;;7.63;4.70;;;20.30;62.40;;;;;;5062245;28;20052;-63
2022/08/30 11:32:21;;;;;;;7.00;5.07;;;20.30;62.80;;;;;;5062095;28;20079;-63
2022/08/30 11:34:57;;;;;;;8.60;4.68;;;20.40;62.40;;;;;;5062346;28;20052;-63
2022/08/30 11:37:41;;;;;;;14.52;5.10;;;20.50;64.10;;;;;;5059438;28;20048;-63
2022/08/30 11:40:46;;;;;;;6.30;5.05;;;20.50;62.90;;;;;;5056848;28;20078;-64
2022/08/30 11:43:48;;;;;;;6.03;4.78;;;20.60;62.00;;;;;;5060006;28;20052;-64
2022/08/30 11:46:37;;;;;;;8.25;5.03;;;20.60;61.90;;;;;;5053943;28;20040;-64
2022/08/30 11:49:44;;;;;;;9.85;5.90;;;20.60;61.60;;;;;;5058106;28;20102;-65
2022/08/30 11:52:32;;;;;;;6.28;4.90;;;20.60;61.10;;;;;;5063122;28;20472;-63
2022/08/30 11:55:31;;;;;;;11.35;5.20;;;20.60;61.00;;;;;;5063521;28;20498;-65
2022/08/30 11:58:24;;;;;;;5.57;4.97;;;20.60;60.40;;;;;;5060384;28;20470;-65
2022/08/30 12:01:16;;;;;;;5.80;4.88;;;20.50;61.10;;;;;;5057392;28;20048;-65
2022/08/30 12:04:11;;;;;;;;;;;20.50;61.20;;;;;;5064335;28;20044;-62
2022/08/30 12:06:53;;;;;;;16.75;5.32;;;20.50;60.80;;;;;;5058856;28;19920;-63
2022/08/30 12:10:00;;;;;;;11.10;5.38;;;20.50;61.30;;;;;;5060090;28;20048;-63
2022/08/30 12:12:46;;;;;;;9.98;5.38;;;20.50;60.40;;;;;;5062083;28;20052;-66
2022/08/30 12:15:53;;;;;;;17.08;6.32;;;20.50;60.80;;;;;;5054320;28;20459;-64
2022/08/30 12:18:26;;;;;;;13.00;5.28;;;20.50;60.10;;;;;;5060037;28;20132;-63
2022/08/30 12:21:01;;;;;;;8.02;4.97;;;20.40;60.80;;;;;;5058185;28;20045;-65
2022/08/30 12:23:38;;;;;;;8.65;4.80;;;20.40;60.90;;;;;;5058632;28;20091;-66
2022/08/30 12:26:15;;;;;;;5.72;5.00;;;20.40;61.20;;;;;;5060738;28;20131;-63
2022/08/30 12:28:48;;;;;;;6.90;5.55;;;20.40;61.30;;;;;;5061883;28;20040;-64
2022/08/30 12:31:22;;;;;;;9.97;5.20;;;20.50;61.30;;;;;;5057855;28;20496;-62
2022/08/30 12:33:57;;;;;;;8.15;5.70;;;20.50;61.40;;;;;;5062402;28;20293;-62
2022/08/30 12:36:33;;;;;;;6.28;4.65;;;20.50;61.30;;;;;;5063198;28;20515;-62
2022/08/30 12:39:16;;;;;;;5.18;4.65;;;20.50;61.10;;;;;;5061782;28;20091;-65
2022/08/30 12:41:44;;;;;;;6.53;4.60;;;20.60;61.10;;;;;;5059414;28;20044;-61
2022/08/30 12:44:24;;;;;;;6.35;4.95;;;20.50;61.30;;;;;;5060303;28;20420;-65
2022/08/30 12:46:56;;;;;;;6.77;5.37;;;20.60;61.00;;;;;;5058714;28;20045;-65
2022/08/30 12:49:28;;;;;;;5.60;4.97;;;20.60;61.40;;;;;;5059499;28;20048;-63
2022/08/30 12:52:19;;;;;;;5.95;4.78;;;20.60;61.30;;;;;;5062900;28;20147;-63
2022/08/30 12:54:46;;;;;;;6.40;4.50;;;20.60;60.80;;;;;;5060823;28;20461;-63
2022/08/30 12:57:39;;;;;;;5.35;4.68;;;20.60;61.20;;;;;;5056833;28;20109;-65
2022/08/30 13:00:24;;;;;;;5.93;4.78;;;20.60;61.20;;;;;;5062850;28;20044;-65
2022/08/30 13:02:56;;;;;;;10.40;5.13;;;20.60;61.10;;;;;;5058247;28;20048;-62
2022/08/30 13:05:43;;;;;;;6.38;5.30;;;20.60;61.20;;;;;;5062679;28;20041;-62
2022/08/30 13:08:20;;;;;;;7.15;5.10;;;20.70;61.40;;;;;;5062532;28;20461;-65
2022/08/30 13:11:11;;;;;;;5.88;5.28;;;20.70;61.70;;;;;;5058253;28;21477;-67
2022/08/30 13:13:51;;;;;;;7.15;5.25;;;20.80;60.70;;;;;;5058636;28;20549;-63
2022/08/30 13:16:23;;;;;;;7.47;5.57;;;20.80;61.70;;;;;;5066349;28;20056;-63
2022/08/30 13:19:30;;;;;;;5.35;4.57;;;20.80;61.40;;;;;;5060970;28;20400;-64
2022/08/30 13:21:59;;;;;;;8.18;5.20;;;20.80;60.40;;;;;;5066269;28;20490;-64
2022/08/30 13:24:28;;;;;;;6.85;5.70;;;20.80;60.60;;;;;;5068071;28;20080;-65
2022/08/30 13:27:05;;;;;;;6.10;5.05;;;20.80;60.30;;;;;;5065336;28;20102;-65
2022/08/30 13:29:32;;;;;;;6.60;4.68;;;20.80;61.00;;;;;;5088253;28;20095;-66